Pagrindinis puslapis
METAR-TAF:

METAR-TAF

Oro uostai :

Resifė, Pernambuco, Brazilija

platuma: 08-08S, ilguma: 034-55W, Aukštis: 19 m

Dabartinis oras

Ataskaita buvo paskelbta 39 minutes, ne 08:00 UTC
Vėjas 7 kt iš Rytų/Pietryčių
Temperatūra 25°C
Drėgmė 65%
Slėgis 1010 hPa
Matomumas 10 km arba daugiau
Išsisklaidę debesys ne aukštis 2500 ft

METAR: SBRF 160800Z 12007KT 9999 SCT025 25/18 Q1010

Laikas: 05:39 (08:39 UTC)

Prognozė

Ataskaita buvo paskelbta 6 valandos ir 9 minutes, ne 02:30 UTC
Prognozė galioja nuo 16 metu 06 UTC su 17 metu 06 UTC
Vėjas 5 kt iš Rytų
Matomumas 10 km arba daugiau
Išsisklaidę debesys ne aukštis 2500 ft
Tapsmas
nuo 16 metu 14 UTC su 16 metu 16 UTC
Vėjas 10 kt iš Rytų/Pietryčių
Tapsmas
nuo 17 metu 04 UTC su 17 metu 06 UTC
Vėjas 5 kt iš Pietų/Pietryčių
Su prošvaistėmis ne aukštis 2000 ft

TAF: SBRF 160230Z 1606/1706 09005KT 9999 SCT025 TN25/1608Z TX30/1616Z BECMG 1614/1616 12010KT BECMG 1704/1706 15005KT BKN020 RMK PFV

Orai ataskaitas ir orų prognozės (METAR, TAF).

turimą stotys yra geltonos ir raudonos taškus žemėlapyje.

Perkelti pele per norėdami pamatyti stoties vardą.

Tada spustelėkite, norėdami matyti oro stebėjimo ir prognozės.

Norėdami pakeisti žemėlapį: spustelėkite ant žalios mygtukų su juodo kryžiaus žemyn,; žalią mygtuką su brūkšneliu, jei norite nutolinti; arba žalių rodyklių gretimoms žemėlapius.


METAR-TAF: